createdAt,value
2016-08-25T00:00:44.334Z,13.9
2016-08-25T00:01:44.351Z,13.87
2016-08-25T00:02:44.349Z,13.96
2016-08-25T00:03:44.332Z,14.01
2016-08-25T00:04:44.320Z,14.02
2016-08-25T00:05:44.310Z,13.99
2016-08-25T00:06:44.329Z,14.05
2016-08-25T00:07:44.322Z,14.05
2016-08-25T00:08:44.309Z,13.99
2016-08-25T00:09:44.317Z,13.93
2016-08-25T00:10:45.036Z,13.94
2016-08-25T00:11:44.291Z,13.9
2016-08-25T00:12:44.282Z,13.98
2016-08-25T00:13:44.284Z,13.91
2016-08-25T00:14:44.298Z,13.98
2016-08-25T00:15:44.284Z,14.04
2016-08-25T00:16:44.278Z,14.02
2016-08-25T00:17:44.273Z,13.99
2016-08-25T00:18:44.286Z,13.99
2016-08-25T00:19:44.266Z,13.99
2016-08-25T00:20:44.262Z,14.06
2016-08-25T00:21:44.259Z,14.05
2016-08-25T00:22:44.259Z,14.08
2016-08-25T00:23:44.252Z,14.02
2016-08-25T00:24:44.247Z,14.05
2016-08-25T00:25:44.232Z,14.17
2016-08-25T00:26:44.237Z,14.05
2016-08-25T00:27:44.240Z,13.98
2016-08-25T00:28:44.222Z,13.99
2016-08-25T00:29:44.227Z,14.06
2016-08-25T00:30:44.214Z,13.99
2016-08-25T00:31:44.216Z,13.94
2016-08-25T00:32:44.211Z,13.98
2016-08-25T00:33:44.220Z,14.11
2016-08-25T00:34:44.212Z,14.01
2016-08-25T00:35:44.181Z,14.05
2016-08-25T00:36:44.208Z,13.96
2016-08-25T00:37:44.187Z,13.98
2016-08-25T00:38:44.193Z,13.99
2016-08-25T00:39:44.167Z,13.79
2016-08-25T00:40:44.168Z,13.93
2016-08-25T00:41:44.175Z,13.9
2016-08-25T00:42:44.185Z,14.01
2016-08-25T00:43:44.168Z,14.08
2016-08-25T00:44:44.141Z,14.01
2016-08-25T00:45:44.173Z,14.04
2016-08-25T00:46:44.161Z,14.09
2016-08-25T00:47:44.160Z,14.08
2016-08-25T00:48:44.125Z,14.01
2016-08-25T00:49:44.141Z,14.05
2016-08-25T00:50:44.151Z,14.08
2016-08-25T00:51:44.132Z,14.05
2016-08-25T00:52:44.142Z,14.08
2016-08-25T00:53:44.124Z,13.96
2016-08-25T00:54:44.108Z,13.98
2016-08-25T00:55:44.108Z,13.96
2016-08-25T00:56:44.102Z,14.05
2016-08-25T00:57:44.106Z,14.12
2016-08-25T00:58:44.088Z,14.12
2016-08-25T00:59:44.091Z,14.11
2016-08-25T01:00:44.094Z,14.06
2016-08-25T01:01:44.094Z,14.01
2016-08-25T01:02:44.094Z,14.23
2016-08-25T01:03:44.061Z,14.24
2016-08-25T01:04:44.059Z,14.19
2016-08-25T01:05:44.087Z,14.2
2016-08-25T01:06:44.064Z,14.02
2016-08-25T01:07:44.043Z,14.04
2016-08-25T01:08:44.068Z,13.91
2016-08-25T01:09:44.065Z,13.94
2016-08-25T01:10:44.051Z,13.9
2016-08-25T01:11:44.039Z,13.94
2016-08-25T01:12:44.030Z,13.93
2016-08-25T01:13:44.054Z,13.99
2016-08-25T01:14:44.046Z,13.99
2016-08-25T01:15:44.044Z,13.96
2016-08-25T01:16:44.024Z,13.9
2016-08-25T01:17:44.019Z,13.88
2016-08-25T01:18:44.033Z,13.84
2016-08-25T01:19:44.019Z,13.75
2016-08-25T01:20:43.994Z,13.83
2016-08-25T01:21:43.984Z,13.75
2016-08-25T01:22:43.984Z,13.71
2016-08-25T01:23:44.015Z,13.69
2016-08-25T01:24:44.704Z,13.75
2016-08-25T01:25:43.984Z,13.71
2016-08-25T01:26:43.984Z,13.68
2016-08-25T01:27:43.965Z,13.63
2016-08-25T01:28:43.961Z,13.53
2016-08-25T01:29:43.971Z,13.57
2016-08-25T01:30:43.975Z,13.47
2016-08-25T01:31:43.955Z,13.39
2016-08-25T01:32:43.946Z,13.5
2016-08-25T01:33:43.940Z,13.46
2016-08-25T01:34:43.948Z,13.68
2016-08-25T01:35:43.954Z,13.71
2016-08-25T01:36:43.937Z,13.73
2016-08-25T01:37:43.954Z,13.72
2016-08-25T01:38:43.943Z,13.8
2016-08-25T01:39:43.939Z,13.73
2016-08-25T01:40:43.908Z,13.76
2016-08-25T01:41:43.923Z,13.8
2016-08-25T01:42:43.908Z,13.83
2016-08-25T01:43:43.910Z,13.9
2016-08-25T01:44:43.910Z,13.84
2016-08-25T01:45:43.901Z,13.93
2016-08-25T01:46:43.920Z,13.87
2016-08-25T01:47:43.908Z,13.87
2016-08-25T01:48:43.894Z,13.73
2016-08-25T01:49:43.907Z,13.8
2016-08-25T01:50:43.891Z,13.75
2016-08-25T01:51:43.865Z,13.71
2016-08-25T01:52:44.599Z,13.69
2016-08-25T01:53:43.887Z,13.68
2016-08-25T01:54:43.882Z,13.63
2016-08-25T01:55:43.887Z,13.68
2016-08-25T01:56:43.869Z,13.63
2016-08-25T01:57:43.863Z,13.61
2016-08-25T01:58:43.860Z,13.73
2016-08-25T01:59:43.858Z,13.69
2016-08-25T02:00:43.846Z,13.71
2016-08-25T02:01:43.861Z,13.65
2016-08-25T02:02:43.823Z,13.71
2016-08-25T02:03:43.822Z,13.75
2016-08-25T02:04:43.830Z,13.87
2016-08-25T02:05:43.836Z,13.79
2016-08-25T02:06:43.971Z,13.72
2016-08-25T02:07:43.811Z,13.8
2016-08-25T02:08:43.814Z,13.68
2016-08-25T02:09:43.825Z,13.61
2016-08-25T02:10:43.811Z,13.65
2016-08-25T02:11:43.815Z,13.62
2016-08-25T02:12:43.784Z,13.71
2016-08-25T02:13:43.795Z,13.69
2016-08-25T02:14:43.792Z,13.83
2016-08-25T02:15:43.793Z,13.87
2016-08-25T02:16:43.774Z,13.98
2016-08-25T02:17:43.779Z,14.02
2016-08-25T02:18:43.783Z,13.9
2016-08-25T02:19:43.777Z,13.96
2016-08-25T02:20:43.772Z,13.96
2016-08-25T02:21:43.784Z,14.08
2016-08-25T02:22:43.777Z,13.99
2016-08-25T02:23:43.768Z,14.01
2016-08-25T02:24:43.743Z,14.06
2016-08-25T02:25:43.755Z,14.17
2016-08-25T02:26:43.750Z,14.04
2016-08-25T02:27:43.725Z,14.02
2016-08-25T02:28:43.724Z,14.05
2016-08-25T02:29:43.727Z,13.79
2016-08-25T02:30:43.709Z,13.75
2016-08-25T02:31:43.744Z,13.65
2016-08-25T02:32:43.724Z,13.69
2016-08-25T02:33:43.720Z,13.76
2016-08-25T02:34:43.711Z,13.73
2016-08-25T02:35:43.693Z,13.71
2016-08-25T02:36:43.718Z,13.76
2016-08-25T02:37:43.705Z,13.71
2016-08-25T02:38:43.697Z,13.79
2016-08-25T02:39:43.711Z,13.79
2016-08-25T02:40:43.679Z,13.68
2016-08-25T02:41:43.673Z,13.72
2016-08-25T02:42:43.671Z,13.79
2016-08-25T02:43:43.687Z,13.8
2016-08-25T02:44:43.674Z,13.8
2016-08-25T02:45:43.659Z,13.79
2016-08-25T02:46:43.668Z,13.79
2016-08-25T02:47:43.679Z,13.83
2016-08-25T02:48:43.662Z,13.87
2016-08-25T02:49:43.644Z,13.75
2016-08-25T02:50:44.355Z,13.83
2016-08-25T02:51:43.662Z,13.79
2016-08-25T02:52:43.629Z,13.83
2016-08-25T02:53:43.620Z,13.84
2016-08-25T02:54:43.639Z,13.76
2016-08-25T02:55:43.623Z,13.86
2016-08-25T02:56:43.627Z,13.73
2016-08-25T02:57:43.624Z,13.84
2016-08-25T02:58:43.622Z,13.76
2016-08-25T02:59:43.609Z,13.69
2016-08-25T03:00:43.630Z,13.84
2016-08-25T03:01:43.608Z,13.72
2016-08-25T03:02:43.597Z,13.72
2016-08-25T03:03:43.578Z,13.81
2016-08-25T03:04:43.593Z,13.81
2016-08-25T03:05:43.600Z,13.73
2016-08-25T03:06:43.728Z,13.71
2016-08-25T03:07:43.590Z,13.71
2016-08-25T03:08:43.592Z,13.66
2016-08-25T03:09:43.578Z,13.71
2016-08-25T03:10:43.562Z,13.71
2016-08-25T03:11:43.561Z,13.71
2016-08-25T03:12:43.563Z,13.63
2016-08-25T03:13:43.537Z,13.72
2016-08-25T03:14:43.550Z,13.72
2016-08-25T03:15:44.256Z,13.69
2016-08-25T03:16:43.542Z,13.69
2016-08-25T03:17:43.540Z,13.68
2016-08-25T03:18:43.532Z,13.72
2016-08-25T03:19:43.520Z,13.66
2016-08-25T03:20:43.537Z,13.63
2016-08-25T03:21:43.527Z,13.65
2016-08-25T03:22:43.527Z,13.59
2016-08-25T03:23:43.529Z,13.61
2016-08-25T03:24:43.525Z,13.54
2016-08-25T03:25:43.511Z,13.55
2016-08-25T03:26:43.510Z,13.47
2016-08-25T03:27:43.533Z,13.54
2016-08-25T03:28:43.479Z,13.53
2016-08-25T03:29:43.477Z,13.54
2016-08-25T03:30:43.510Z,13.43
2016-08-25T03:31:43.480Z,13.54
2016-08-25T03:32:43.483Z,13.41
2016-08-25T03:33:43.490Z,13.51
2016-08-25T03:34:43.465Z,13.54
2016-08-25T03:35:43.476Z,13.55
2016-08-25T03:36:43.471Z,13.53
2016-08-25T03:37:43.450Z,13.65
2016-08-25T03:38:43.452Z,13.69
2016-08-25T03:39:43.481Z,13.68
2016-08-25T03:40:43.455Z,13.71
2016-08-25T03:41:43.437Z,13.66
2016-08-25T03:42:43.441Z,13.68
2016-08-25T03:43:43.429Z,13.69
2016-08-25T03:44:43.419Z,13.71
2016-08-25T03:45:43.434Z,13.71
2016-08-25T03:46:43.428Z,13.63
2016-08-25T03:47:43.437Z,13.71
2016-08-25T03:48:43.394Z,13.68
2016-08-25T03:49:43.416Z,13.63
2016-08-25T03:50:43.421Z,13.53
2016-08-25T03:51:43.396Z,13.53
2016-08-25T03:52:43.404Z,13.36
2016-08-25T03:53:43.394Z,13.29
2016-08-25T03:54:43.392Z,13.36
2016-08-25T03:55:43.384Z,13.36
2016-08-25T03:56:43.375Z,13.44
2016-08-25T03:57:43.379Z,13.47
2016-08-25T03:58:43.375Z,13.38
2016-08-25T03:59:43.371Z,13.39
2016-08-25T04:00:43.354Z,13.38
2016-08-25T04:01:43.361Z,13.38
2016-08-25T04:02:43.345Z,13.39
2016-08-25T04:03:43.354Z,13.31
2016-08-25T04:04:43.329Z,13.31
2016-08-25T04:05:43.327Z,13.35
2016-08-25T04:06:43.342Z,13.36
2016-08-25T04:07:43.336Z,13.35
2016-08-25T04:08:43.340Z,13.25
2016-08-25T04:09:43.314Z,13.38
2016-08-25T04:10:43.328Z,13.41
2016-08-25T04:11:43.323Z,13.44
2016-08-25T04:12:43.298Z,13.39
2016-08-25T04:13:44.001Z,13.43
2016-08-25T04:14:43.289Z,13.43
2016-08-25T04:15:43.312Z,13.36
2016-08-25T04:16:43.289Z,13.47
2016-08-25T04:17:43.314Z,13.39
2016-08-25T04:18:43.291Z,13.39
2016-08-25T04:19:43.283Z,13.44
2016-08-25T04:20:43.283Z,13.39
2016-08-25T04:21:43.278Z,13.27
2016-08-25T04:22:43.276Z,13.36
2016-08-25T04:23:43.264Z,13.48
2016-08-25T04:24:43.259Z,13.43
2016-08-25T04:25:43.257Z,13.43
2016-08-25T04:26:43.241Z,13.48
2016-08-25T04:27:43.247Z,13.41
2016-08-25T04:28:43.227Z,13.46
2016-08-25T04:29:43.242Z,13.46
2016-08-25T04:30:43.235Z,13.71
2016-08-25T04:31:43.229Z,13.68
2016-08-25T04:32:43.221Z,13.65
2016-08-25T04:33:43.236Z,13.66
2016-08-25T04:34:43.224Z,13.65
2016-08-25T04:35:43.201Z,13.63
2016-08-25T04:36:43.209Z,13.66
2016-08-25T04:37:43.222Z,13.66
2016-08-25T04:38:43.180Z,13.57
2016-08-25T04:39:43.196Z,13.65
2016-08-25T04:40:43.175Z,13.76
2016-08-25T04:41:43.194Z,13.75
2016-08-25T04:42:43.179Z,13.69
2016-08-25T04:43:43.176Z,13.66
2016-08-25T04:44:43.175Z,13.71
2016-08-25T04:45:43.155Z,13.63
2016-08-25T04:46:43.187Z,13.61
2016-08-25T04:47:43.156Z,13.86
2016-08-25T04:48:43.168Z,14.2
2016-08-25T04:49:43.144Z,14.41
2016-08-25T04:50:43.129Z,14.36
2016-08-25T04:51:43.152Z,14.54
2016-08-25T04:52:43.160Z,14.53
2016-08-25T04:53:43.144Z,14.49
2016-08-25T04:54:43.114Z,14.38
2016-08-25T04:55:43.139Z,14.52
2016-08-25T04:56:43.121Z,14.49
2016-08-25T04:57:43.113Z,14.42
2016-08-25T04:58:43.100Z,14.56
2016-08-25T04:59:43.100Z,14.71
2016-08-25T05:00:43.108Z,14.8
2016-08-25T05:01:43.083Z,14.93
2016-08-25T05:02:43.103Z,15.16
2016-08-25T05:03:43.100Z,15.25
2016-08-25T05:04:43.092Z,15.46
2016-08-25T05:05:43.105Z,15.43
2016-08-25T05:06:43.073Z,15.58
2016-08-25T05:07:43.108Z,15.41
2016-08-25T05:08:43.071Z,15.71
2016-08-25T05:09:43.066Z,15.68
2016-08-25T05:10:43.062Z,15.74
2016-08-25T05:11:43.046Z,15.76
2016-08-25T05:12:43.054Z,15.81
2016-08-25T05:13:43.044Z,15.86
2016-08-25T05:14:43.059Z,15.92
2016-08-25T05:15:43.046Z,15.98
2016-08-25T05:16:43.052Z,15.98
2016-08-25T05:17:43.061Z,16.13
2016-08-25T05:18:43.037Z,16.14
2016-08-25T05:19:43.038Z,16.23
2016-08-25T05:20:43.050Z,16.36
2016-08-25T05:21:43.011Z,16.33
2016-08-25T05:22:43.008Z,16.29
2016-08-25T05:23:43.026Z,16.11
2016-08-25T05:24:43.032Z,16.29
2016-08-25T05:25:43.010Z,16.36
2016-08-25T05:26:43.009Z,16.51
2016-08-25T05:27:42.992Z,16.52
2016-08-25T05:28:43.020Z,16.62
2016-08-25T05:29:43.017Z,16.85
2016-08-25T05:30:42.998Z,17.1
2016-08-25T05:31:42.993Z,17.32
2016-08-25T05:32:43.025Z,17.38
2016-08-25T05:33:43.001Z,17.39
2016-08-25T05:34:42.996Z,17.36
2016-08-25T05:35:42.969Z,17.33
2016-08-25T05:36:42.989Z,17.35
2016-08-25T05:37:42.994Z,17.36
2016-08-25T05:38:42.965Z,17.47
2016-08-25T05:39:42.970Z,17.6
2016-08-25T05:40:42.988Z,17.77
2016-08-25T05:41:42.986Z,17.91
2016-08-25T05:42:42.968Z,18.13
2016-08-25T05:43:42.951Z,18.31
2016-08-25T05:44:42.960Z,18.34
2016-08-25T05:45:42.948Z,18.14
2016-08-25T05:46:43.655Z,17.95
2016-08-25T05:47:42.936Z,17.91
2016-08-25T05:48:42.937Z,17.57
2016-08-25T05:49:42.939Z,17.49
2016-08-25T05:50:42.955Z,17.39
2016-08-25T05:51:42.947Z,17.51
2016-08-25T05:52:42.951Z,17.91
2016-08-25T05:53:42.920Z,18.16
2016-08-25T05:54:42.954Z,18.28
2016-08-25T05:55:42.959Z,18.11
2016-08-25T05:56:42.912Z,18.05
2016-08-25T05:57:42.936Z,18.23
2016-08-25T05:58:42.929Z,18.5
2016-08-25T05:59:42.934Z,18.62
2016-08-25T06:00:42.905Z,18.79
2016-08-25T06:01:42.914Z,18.49
2016-08-25T06:02:42.936Z,18.26
2016-08-25T06:03:42.897Z,17.58
2016-08-25T06:04:42.902Z,17.05
2016-08-25T06:05:42.911Z,16.99
2016-08-25T06:06:42.901Z,17.28
2016-08-25T06:07:42.914Z,17.47
2016-08-25T06:08:42.909Z,17.79
2016-08-25T06:09:42.902Z,18.07
2016-08-25T06:10:42.894Z,18.14
2016-08-25T06:11:42.892Z,17.91
2016-08-25T06:12:42.908Z,17.92
2016-08-25T06:13:42.892Z,18.11
2016-08-25T06:14:42.900Z,18.17
2016-08-25T06:15:42.881Z,18.23
2016-08-25T06:16:42.881Z,18.23
2016-08-25T06:17:42.891Z,18.62
2016-08-25T06:18:42.874Z,18.71
2016-08-25T06:19:42.863Z,18.84
2016-08-25T06:20:42.872Z,18.86
2016-08-25T06:21:42.889Z,18.84
2016-08-25T06:22:42.859Z,18.65
2016-08-25T06:23:42.871Z,18.51
2016-08-25T06:24:42.870Z,18.64
2016-08-25T06:25:42.868Z,18.32
2016-08-25T06:26:42.853Z,18.34
2016-08-25T06:27:42.850Z,18.2
2016-08-25T06:28:42.870Z,18.32
2016-08-25T06:29:42.853Z,18.36
2016-08-25T06:30:42.864Z,18.49
2016-08-25T06:31:42.833Z,18.35
2016-08-25T06:32:42.845Z,18.41
2016-08-25T06:33:42.854Z,18.44
2016-08-25T06:34:42.851Z,18.71
2016-08-25T06:35:42.854Z,18.86
2016-08-25T06:36:42.864Z,19.06
2016-08-25T06:37:42.846Z,19.43
2016-08-25T06:38:42.822Z,19.47
2016-08-25T06:39:42.838Z,19.89
2016-08-25T06:40:42.830Z,20.27
2016-08-25T06:41:42.823Z,20.78
2016-08-25T06:42:42.834Z,20.9
2016-08-25T06:43:42.853Z,21.03
2016-08-25T06:44:42.845Z,21.26
2016-08-25T06:45:42.830Z,21.51
2016-08-25T06:46:42.810Z,21.52
2016-08-25T06:47:42.829Z,21.52
2016-08-25T06:48:42.822Z,21.38
2016-08-25T06:49:42.811Z,21.06
2016-08-25T06:50:42.827Z,20.96
2016-08-25T06:51:42.826Z,21.06
2016-08-25T06:52:42.815Z,21.11
2016-08-25T06:53:42.820Z,21.28
2016-08-25T06:54:42.825Z,21.55
2016-08-25T06:55:42.814Z,21.56
2016-08-25T06:56:42.834Z,21.91
2016-08-25T06:57:42.834Z,21.86
2016-08-25T06:58:42.825Z,21.9
2016-08-25T06:59:42.824Z,22.17
2016-08-25T07:00:42.803Z,21.89
2016-08-25T07:01:42.813Z,21.68
2016-08-25T07:02:42.800Z,21.28
2016-08-25T07:03:42.815Z,21.58
2016-08-25T07:04:42.815Z,21.94
2016-08-25T07:05:42.837Z,22.3
2016-08-25T07:06:42.831Z,22.54
2016-08-25T07:07:42.861Z,22.66
2016-08-25T07:08:42.827Z,22.97
2016-08-25T07:09:42.832Z,22.99
2016-08-25T07:10:42.810Z,23.18
2016-08-25T07:11:42.833Z,23.41
2016-08-25T07:12:42.811Z,23.62
2016-08-25T07:13:42.825Z,23.86
2016-08-25T07:14:42.822Z,23.93
2016-08-25T07:15:42.810Z,23.84
2016-08-25T07:16:42.845Z,23.94
2016-08-25T07:17:42.831Z,23.67
2016-08-25T07:18:42.848Z,23.5
2016-08-25T07:19:42.813Z,23.59
2016-08-25T07:20:42.815Z,23.82
2016-08-25T07:21:42.818Z,23.78
2016-08-25T07:22:42.851Z,23.97
2016-08-25T07:23:42.841Z,24.27
2016-08-25T07:24:42.842Z,24.46
2016-08-25T07:25:42.838Z,24.39
2016-08-25T07:26:42.847Z,24.55
2016-08-25T07:27:42.861Z,24.45
2016-08-25T07:28:42.857Z,24.53
2016-08-25T07:29:42.867Z,24.44
2016-08-25T07:30:42.860Z,24.11
2016-08-25T07:31:42.871Z,24.19
2016-08-25T07:32:42.857Z,23.47
2016-08-25T07:33:42.860Z,23.56
2016-08-25T07:34:42.848Z,23.38
2016-08-25T07:35:42.876Z,23.11
2016-08-25T07:36:42.860Z,23.29
2016-08-25T07:37:42.872Z,23.37
2016-08-25T07:38:42.881Z,23.45
2016-08-25T07:39:42.870Z,23.87
2016-08-25T07:40:42.886Z,24.16
2016-08-25T07:41:42.866Z,24.33
2016-08-25T07:42:42.892Z,24.39
2016-08-25T07:43:42.892Z,24.36
2016-08-25T07:44:42.860Z,24.42
2016-08-25T07:45:42.863Z,24.33
2016-08-25T07:46:42.866Z,23.56
2016-08-25T07:47:42.894Z,23.26
2016-08-25T07:48:42.897Z,23.07
2016-08-25T07:49:42.884Z,23.35
2016-08-25T07:50:42.885Z,23.31
2016-08-25T07:51:42.882Z,23.49
2016-08-25T07:52:42.896Z,23.49
2016-08-25T07:53:42.891Z,23.77
2016-08-25T07:54:42.927Z,23.93
2016-08-25T07:55:42.903Z,24.02
2016-08-25T07:56:42.931Z,23.89
2016-08-25T07:57:42.929Z,23.82
2016-08-25T07:58:42.892Z,23.86
2016-08-25T07:59:42.892Z,23.64
2016-08-25T08:00:42.897Z,23.64
2016-08-25T08:01:42.910Z,23.77
2016-08-25T08:02:42.927Z,23.97
2016-08-25T08:03:42.909Z,24.02
2016-08-25T08:04:43.603Z,23.87
2016-08-25T08:05:42.916Z,23.77
2016-08-25T08:06:42.915Z,23.78
2016-08-25T08:07:43.066Z,23.54
2016-08-25T08:08:42.905Z,23.53
2016-08-25T08:09:42.929Z,23.69
2016-08-25T08:10:42.928Z,23.77
2016-08-25T08:11:42.930Z,23.71
2016-08-25T08:12:42.920Z,23.78
2016-08-25T08:13:42.919Z,23.81
2016-08-25T08:14:42.948Z,23.68
2016-08-25T08:15:42.932Z,23.94
2016-08-25T08:16:42.937Z,23.99
2016-08-25T08:17:42.939Z,23.86
2016-08-25T08:18:42.920Z,23.82
2016-08-25T08:19:42.958Z,23.56
2016-08-25T08:20:42.946Z,23.35
2016-08-25T08:21:42.951Z,23.38
2016-08-25T08:22:42.966Z,23.49
2016-08-25T08:23:42.944Z,22.74
2016-08-25T08:24:42.952Z,23.03
2016-08-25T08:25:42.929Z,23.12
2016-08-25T08:26:43.627Z,23.49
2016-08-25T08:27:42.972Z,23.53
2016-08-25T08:28:42.947Z,23.59
2016-08-25T08:29:42.935Z,23.87
2016-08-25T08:30:42.935Z,23.69
2016-08-25T08:31:42.958Z,23.38
2016-08-25T08:32:42.942Z,23.54
2016-08-25T08:33:42.963Z,23.6
2016-08-25T08:34:43.674Z,23.67
2016-08-25T08:35:42.973Z,23.92
2016-08-25T08:36:42.966Z,23.84
2016-08-25T08:37:42.968Z,23.93
2016-08-25T08:38:42.976Z,23.67
2016-08-25T08:39:42.971Z,23.57
2016-08-25T08:40:42.975Z,23.16
2016-08-25T08:41:42.967Z,22.74
2016-08-25T08:42:43.004Z,22.64
2016-08-25T08:43:42.968Z,22.79
2016-08-25T08:44:42.979Z,23.32
2016-08-25T08:45:42.995Z,23.38
2016-08-25T08:46:42.971Z,23.11
2016-08-25T08:47:42.974Z,22.84
2016-08-25T08:48:42.975Z,22.81
2016-08-25T08:49:42.986Z,23.12
2016-08-25T08:50:42.975Z,22.96
2016-08-25T08:51:42.983Z,22.89
2016-08-25T08:52:42.987Z,22.72
2016-08-25T08:53:42.984Z,22.63
2016-08-25T08:54:42.981Z,22.52
2016-08-25T08:55:42.990Z,22.39
2016-08-25T08:56:42.970Z,22.52
2016-08-25T08:57:42.992Z,22.93
2016-08-25T08:58:42.996Z,22.81
2016-08-25T08:59:42.986Z,22.54
2016-08-25T09:00:42.974Z,22.57
2016-08-25T09:01:42.990Z,22.49
2016-08-25T09:02:43.002Z,22.85
2016-08-25T09:03:43.000Z,23.07
2016-08-25T09:04:42.987Z,23.09
2016-08-25T09:05:42.983Z,22.84
2016-08-25T09:06:42.970Z,22.85
2016-08-25T09:07:42.991Z,22.6
2016-08-25T09:08:42.997Z,22.72
2016-08-25T09:09:42.989Z,22.69
2016-08-25T09:10:42.988Z,22.94
2016-08-25T09:11:42.989Z,22.84
2016-08-25T09:12:42.967Z,22.72
2016-08-25T09:13:42.967Z,22.66
2016-08-25T09:14:43.005Z,22.51
2016-08-25T09:15:42.988Z,22.42
2016-08-25T09:16:42.973Z,22.51
2016-08-25T09:17:42.989Z,22.26
2016-08-25T09:18:42.969Z,21.96
2016-08-25T09:19:42.976Z,21.89
2016-08-25T09:20:42.991Z,21.82
2016-08-25T09:21:42.986Z,21.74
2016-08-25T09:22:42.993Z,22.04
2016-08-25T09:23:42.985Z,22.05
2016-08-25T09:24:43.009Z,22.35
2016-08-25T09:25:42.973Z,22.7
2016-08-25T09:26:42.990Z,22.88
2016-08-25T09:27:42.974Z,22.69
2016-08-25T09:28:42.995Z,22.29
2016-08-25T09:29:43.000Z,22.12
2016-08-25T09:30:42.979Z,21.81
2016-08-25T09:31:42.983Z,21.86
2016-08-25T09:32:42.981Z,21.74
2016-08-25T09:33:42.964Z,21.82
2016-08-25T09:34:43.002Z,21.98
2016-08-25T09:35:42.989Z,21.82
2016-08-25T09:36:42.977Z,22.14
2016-08-25T09:37:43.001Z,21.94
2016-08-25T09:38:42.972Z,21.68
2016-08-25T09:39:42.970Z,21.81
2016-08-25T09:40:42.999Z,21.81
2016-08-25T09:41:42.969Z,21.99
2016-08-25T09:42:42.989Z,22.19
2016-08-25T09:43:42.972Z,22.33
2016-08-25T09:44:42.996Z,22.36
2016-08-25T09:45:42.962Z,22.19
2016-08-25T09:46:42.975Z,22.14
2016-08-25T09:47:42.979Z,21.93
2016-08-25T09:48:42.965Z,21.81
2016-08-25T09:49:42.993Z,22.01
2016-08-25T09:50:42.973Z,22.01
2016-08-25T09:51:42.967Z,22.09
2016-08-25T09:52:42.966Z,22.31
2016-08-25T09:53:42.972Z,22.2
2016-08-25T09:54:42.994Z,22.38
2016-08-25T09:55:42.973Z,22.36
2016-08-25T09:56:42.966Z,22.44
2016-08-25T09:57:42.973Z,22.35
2016-08-25T09:58:43.690Z,22.44
2016-08-25T09:59:42.964Z,22.67
2016-08-25T10:00:42.964Z,22.66
2016-08-25T10:01:42.978Z,22.51
2016-08-25T10:02:42.965Z,22.38
2016-08-25T10:03:42.960Z,22.26
2016-08-25T10:04:42.972Z,22.09
2016-08-25T10:05:42.969Z,22.17
2016-08-25T10:06:42.998Z,22.04
2016-08-25T10:07:42.986Z,22.06
2016-08-25T10:08:42.958Z,21.96
2016-08-25T10:09:42.976Z,21.91
2016-08-25T10:10:42.957Z,21.98
2016-08-25T10:11:42.977Z,22.08
2016-08-25T10:12:42.971Z,22.44
2016-08-25T10:13:42.968Z,22.72
2016-08-25T10:14:42.958Z,22.72
2016-08-25T10:15:42.963Z,22.75
2016-08-25T10:16:42.992Z,22.93
2016-08-25T10:17:42.965Z,22.81
2016-08-25T10:18:42.991Z,22.72
2016-08-25T10:19:42.992Z,22.85
2016-08-25T10:20:42.991Z,22.81
2016-08-25T10:21:42.987Z,22.57
2016-08-25T10:22:42.990Z,22.51
2016-08-25T10:23:42.983Z,22.41
2016-08-25T10:24:42.974Z,22.27
2016-08-25T10:25:42.985Z,22.3
2016-08-25T10:26:42.997Z,22.35
2016-08-25T10:27:42.984Z,22.35
2016-08-25T10:28:42.975Z,22.49
2016-08-25T10:29:42.957Z,22.46
2016-08-25T10:30:42.995Z,22.56
2016-08-25T10:31:42.963Z,22.54
2016-08-25T10:32:42.978Z,22.69
2016-08-25T10:33:42.985Z,22.72
2016-08-25T10:34:42.971Z,22.48
2016-08-25T10:35:42.997Z,22.54
2016-08-25T10:36:42.970Z,22.38
2016-08-25T10:37:42.970Z,22.35
2016-08-25T10:38:42.978Z,22.24
2016-08-25T10:39:42.986Z,22.48
2016-08-25T10:40:42.985Z,22.35
2016-08-25T10:41:42.970Z,22.27
2016-08-25T10:42:42.975Z,21.93
2016-08-25T10:43:42.979Z,22.09
2016-08-25T10:44:42.971Z,22.12
2016-08-25T10:45:42.978Z,22.08
2016-08-25T10:46:42.972Z,22.08
2016-08-25T10:47:42.989Z,22.12
2016-08-25T10:48:42.995Z,21.93
2016-08-25T10:49:42.977Z,22.09
2016-08-25T10:50:42.976Z,22.38
2016-08-25T10:51:42.969Z,22.75
2016-08-25T10:52:42.976Z,22.88
2016-08-25T10:53:42.954Z,22.67
2016-08-25T10:54:42.976Z,22.41
2016-08-25T10:55:42.985Z,22.36
2016-08-25T10:56:42.991Z,22.3
2016-08-25T10:57:42.971Z,22.39
2016-08-25T10:58:42.976Z,22.15
2016-08-25T10:59:42.966Z,22.01
2016-08-25T11:00:42.958Z,22.12
2016-08-25T11:01:42.978Z,22.01
2016-08-25T11:02:42.958Z,22.05
2016-08-25T11:03:42.973Z,21.99
2016-08-25T11:04:42.993Z,21.99
2016-08-25T11:05:42.961Z,21.96
2016-08-25T11:06:42.980Z,21.96
2016-08-25T11:07:42.983Z,22.01
2016-08-25T11:08:43.116Z,22.09
2016-08-25T11:09:42.992Z,22.09
2016-08-25T11:10:42.959Z,21.9
2016-08-25T11:11:42.969Z,21.91
2016-08-25T11:12:42.978Z,22.24
2016-08-25T11:13:42.964Z,22.11
2016-08-25T11:14:42.967Z,21.85
2016-08-25T11:15:42.990Z,22.05
2016-08-25T11:16:42.991Z,22.14
2016-08-25T11:17:42.991Z,22.19
2016-08-25T11:18:42.984Z,22.09
2016-08-25T11:19:42.964Z,22.27
2016-08-25T11:20:42.985Z,22.54
2016-08-25T11:21:42.981Z,22.76
2016-08-25T11:22:42.973Z,23
2016-08-25T11:23:42.976Z,22.99
2016-08-25T11:24:42.964Z,23.34
2016-08-25T11:25:42.977Z,23.62
2016-08-25T11:26:42.963Z,23.71
2016-08-25T11:27:42.984Z,23.69
2016-08-25T11:28:42.997Z,23.72
2016-08-25T11:29:42.980Z,23.18
2016-08-25T11:30:42.959Z,23.25
2016-08-25T11:31:42.990Z,23.07
2016-08-25T11:32:42.964Z,22.72
2016-08-25T11:33:42.964Z,22.42
2016-08-25T11:34:42.961Z,22.38
2016-08-25T11:35:42.971Z,22.31
2016-08-25T11:36:42.998Z,22.39
2016-08-25T11:37:42.997Z,22.24
2016-08-25T11:38:42.972Z,21.93
2016-08-25T11:39:42.991Z,21.81
2016-08-25T11:40:42.976Z,21.73
2016-08-25T11:41:42.997Z,21.71
2016-08-25T11:42:42.977Z,21.94
2016-08-25T11:43:42.963Z,21.96
2016-08-25T11:45:42.979Z,21.93
2016-08-25T11:46:42.975Z,21.89
2016-08-25T11:47:42.992Z,22.01
2016-08-25T11:48:42.976Z,21.86
2016-08-25T11:49:42.986Z,21.9
2016-08-25T11:50:42.994Z,21.99
2016-08-25T11:51:43.665Z,22.01
2016-08-25T11:52:42.975Z,21.77
2016-08-25T11:53:42.983Z,21.77
2016-08-25T11:54:42.996Z,21.93
2016-08-25T11:55:43.009Z,21.75
2016-08-25T11:56:42.959Z,21.51
2016-08-25T11:57:42.966Z,21.67
2016-08-25T11:58:42.975Z,21.96
2016-08-25T11:59:42.974Z,22.19
2016-08-25T12:00:42.986Z,22.08
2016-08-25T12:01:42.971Z,21.94
2016-08-25T12:02:42.956Z,21.67
2016-08-25T12:03:42.959Z,21.75
2016-08-25T12:04:42.963Z,21.7
2016-08-25T12:05:42.991Z,21.58
2016-08-25T12:06:42.988Z,21.66
2016-08-25T12:07:42.989Z,21.83
2016-08-25T12:08:43.174Z,22.23
2016-08-25T12:09:42.984Z,22.46
2016-08-25T12:10:42.979Z,22.52
2016-08-25T12:11:42.954Z,22.54
2016-08-25T12:12:42.961Z,22.44
2016-08-25T12:13:42.959Z,22.39
2016-08-25T12:14:42.989Z,22.46
2016-08-25T12:15:42.979Z,22.35
2016-08-25T12:16:42.955Z,22.45
2016-08-25T12:17:42.969Z,22.46
2016-08-25T12:18:42.969Z,22.44
2016-08-25T12:19:42.987Z,22.33
2016-08-25T12:20:42.967Z,22.21
2016-08-25T12:21:42.977Z,22.17
2016-08-25T12:22:42.966Z,22.11
2016-08-25T12:23:42.988Z,22.2
2016-08-25T12:24:42.959Z,22.15
2016-08-25T12:25:42.973Z,22.3
2016-08-25T12:26:42.962Z,22.33
2016-08-25T12:27:42.950Z,22.36
2016-08-25T12:28:42.978Z,22.38
2016-08-25T12:29:42.953Z,22.21
2016-08-25T12:30:42.986Z,22.21
2016-08-25T12:31:42.964Z,22.2
2016-08-25T12:32:42.984Z,21.99
2016-08-25T12:33:42.969Z,21.99
2016-08-25T12:34:42.969Z,22.05
2016-08-25T12:35:42.960Z,22.38
2016-08-25T12:36:42.990Z,22.54
2016-08-25T12:37:42.974Z,22.51
2016-08-25T12:38:42.967Z,22.38
2016-08-25T12:39:42.975Z,22.48
2016-08-25T12:40:42.967Z,22.41
2016-08-25T12:41:42.978Z,22.41
2016-08-25T12:42:42.963Z,22.33
2016-08-25T12:43:42.982Z,22.36
2016-08-25T12:44:42.991Z,22.12
2016-08-25T12:45:42.974Z,22.06
2016-08-25T12:46:42.981Z,21.99
2016-08-25T12:47:42.961Z,21.86
2016-08-25T12:48:42.971Z,21.85
2016-08-25T12:49:42.967Z,21.86
2016-08-25T12:50:42.968Z,21.7
2016-08-25T12:51:42.971Z,21.66
2016-08-25T12:52:42.966Z,21.48
2016-08-25T12:53:42.956Z,21.71
2016-08-25T12:54:42.974Z,21.74
2016-08-25T12:55:42.981Z,21.99